Aviation Digital Data Service (ADDS)

Output produced by METARs form (0247 UTC 22 February 2019)
found at http://www.aviationweather.gov/metar/data/
 
Forecast for: LYTV (TIVAT , CS)
Text: TAF LYTV 212300Z 2200/2224 04005KT CAVOK TX14/2212Z TN01/2204Z
Forecast period: 0000 to 1600 UTC 22 February 2019
Forecast type: FROM: standard forecast or significant change
Winds: from the NE (40 degrees) at 6 MPH (5 knots; 2.6 m/s)
Visibility: 6 or more miles 10+ km)
Ceiling: unknown
Clouds: missing
Weather: no significant weather forecast for this period
Text: BECMG 2216/2218 02015KT
Forecast period: 1600 UTC 22 February 2019 to 0000 UTC 23 February 2019
Forecast type: BECOMING: Conditions expected to become as follows by 1800 UTC 22 February 2019
Winds: from the NNE (20 degrees) at 17 MPH (15 knots; 7.7 m/s)
Visibility: 6 or more miles 10+ km)
Ceiling: unknown
Clouds: missing
Weather: no significant weather forecast for this period
Text: TEMPO 2221/2224 02020G30KT
Forecast period: 2100 UTC 22 February 2019 to 0000 UTC 23 February 2019
Forecast type: TEMPORARY: The following changes expected for less than half the time period
Winds: from the NNE (20 degrees) at 23 MPH (20 knots; 10.3 m/s)
gusting to 34 MPH (30 knots; 15.4 m/s)
Visibility: missing
Ceiling: unknown
Clouds: missing
Weather: no significant weather forecast for this period